Time;durP1;ratioP1;P1;durP2;ratioP2;P2;SDS_P1;SDS_P2;PMS_P1;PMS_P2;Temp;Humidity;BMP_temperature;BMP_pressure;BME280_temperature;BME280_humidity;BME280_pressure;Samples;Min_cycle;Max_cycle;Signal;HPM_P1;HPM_P2
2021/12/19 00:00:32;;;;;;;;;49.00;38.00;;;;;7.26;76.55;102975.66;4994854;28;45487;-66
2021/12/19 00:08:48;;;;;;;;;45.00;33.00;;;;;7.52;77.53;103038.84;4997611;28;45385;-66
2021/12/19 00:11:14;;;;;;;;;37.33;35.67;;;;;7.59;77.15;103037.63;4996592;28;45544;-66
2021/12/19 00:13:42;;;;;;;;;40.33;35.00;;;;;7.56;76.94;103037.78;4997159;28;46377;-66
2021/12/19 00:16:09;;;;;;;;;47.00;33.00;;;;;7.59;76.92;103037.63;4996436;28;45363;-66
2021/12/19 00:18:35;;;;;;;;;43.67;35.33;;;;;7.68;76.89;103024.94;4979909;28;45204;-66
2021/12/19 00:21:00;;;;;;;;;41.00;33.67;;;;;7.24;76.63;102940.47;4977418;28;45518;-67
2021/12/19 00:23:26;;;;;;;;;40.33;32.00;;;;;7.92;76.19;103021.16;4977265;28;45528;-66
2021/12/19 00:25:52;;;;;;;;;33.33;31.33;;;;;7.88;75.33;102985.16;4991172;28;45481;-66
2021/12/19 00:28:18;;;;;;;;;35.33;30.33;;;;;8.10;74.78;103017.66;4997305;28;45813;-68
2021/12/19 00:30:43;;;;;;;;;31.67;28.33;;;;;8.03;74.88;103005.63;4997150;28;45432;-66
2021/12/19 00:33:09;;;;;;;;;40.33;32.33;;;;;7.98;74.88;102994.38;4996808;28;46340;-66
2021/12/19 00:35:35;;;;;;;;;47.00;36.67;;;;;7.92;75.15;103013.22;4995444;28;45381;-66
2021/12/19 00:38:00;;;;;;;;;35.33;29.33;;;;;7.90;75.28;103004.47;4994675;28;45478;-66
2021/12/19 00:40:26;;;;;;;;;32.33;24.67;;;;;7.94;75.58;102998.97;4995332;28;45395;-67
2021/12/19 00:43:02;;;;;;;;;42.67;36.00;;;;;7.88;75.09;102998.41;4996341;28;46856;-65
2021/12/19 00:45:31;;;;;;;;;38.33;34.67;;;;;7.65;76.04;102988.88;4994256;28;45726;-66
2021/12/19 00:47:57;;;;;;;;;46.67;36.67;;;;;7.53;76.24;102987.63;4978100;28;45225;-70
2021/12/19 00:50:25;;;;;;;;;40.00;34.33;;;;;7.21;76.16;102935.31;4991435;28;45397;-66
2021/12/19 00:52:50;;;;;;;;;43.33;35.33;;;;;7.51;77.09;103002.72;4986879;28;45420;-68
2021/12/19 00:55:19;;;;;;;;;43.00;34.33;;;;;7.57;77.12;102999.78;4986240;28;46966;-66
2021/12/19 00:57:45;;;;;;;;;47.00;36.00;;;;;7.28;76.80;102945.53;4976005;28;45614;-66
2021/12/19 01:00:14;;;;;;;;;36.67;32.00;;;;;7.45;76.94;102976.53;4977499;28;45447;-68
2021/12/19 01:02:41;;;;;;;;;37.33;32.67;;;;;7.38;76.79;102980.38;4996571;28;46746;-66
2021/12/19 01:05:08;;;;;;;;;37.33;30.33;;;;;7.38;77.15;102988.31;4996126;28;45522;-67
2021/12/19 01:07:33;;;;;;;;;49.67;36.00;;;;;7.27;77.43;102967.66;4996253;28;45478;-66
2021/12/19 01:09:59;;;;;;;;;35.67;31.33;;;;;7.25;77.47;102974.78;4996670;28;45487;-66
2021/12/19 01:12:25;;;;;;;;;29.33;26.67;;;;;7.09;77.67;102967.59;4996641;28;45544;-67
2021/12/19 01:14:52;;;;;;;;;39.00;32.33;;;;;7.18;78.43;102986.56;4986527;28;45234;-67
2021/12/19 01:17:17;;;;;;;;;27.33;20.33;;;;;6.89;78.37;102926.16;4977159;28;45214;-64
2021/12/19 01:19:45;;;;;;;;;34.67;30.33;;;;;7.29;78.65;102986.94;4984462;28;45472;-66
2021/12/19 01:22:10;;;;;;;;;33.67;30.00;;;;;7.09;78.36;102933.22;4983796;28;45915;-66
2021/12/19 01:24:36;;;;;;;;;31.00;28.33;;;;;7.36;78.32;102990.19;4983410;28;46586;-66
2021/12/19 01:27:02;;;;;;;;;39.67;33.00;;;;;7.24;77.97;102961.63;4977102;28;45504;-66
2021/12/19 01:29:28;;;;;;;;;47.33;36.33;;;;;7.12;78.27;102941.84;4978273;28;45435;-66
2021/12/19 01:31:54;;;;;;;;;39.00;35.33;;;;;7.33;77.81;102982.38;4980160;28;45886;-66
2021/12/19 01:34:20;;;;;;;;;36.67;32.67;;;;;7.04;77.98;102928.13;4980209;28;45503;-66
2021/12/19 01:36:45;;;;;;;;;33.33;31.67;;;;;7.32;78.03;102976.22;4980160;28;45577;-66
2021/12/19 01:39:11;;;;;;;;;37.00;31.67;;;;;7.38;77.97;102977.72;4988859;28;45384;-65
2021/12/19 01:41:50;;;;;;;;;35.67;30.33;;;;;7.29;78.23;102976.38;4999392;28;45811;-67
2021/12/19 01:44:15;;;;;;;;;37.00;29.33;;;;;7.26;78.12;102980.94;4996059;28;45428;-66
2021/12/19 01:46:44;;;;;;;;;41.33;36.00;;;;;7.21;78.57;102981.16;4999791;28;45318;-66
2021/12/19 01:49:10;;;;;;;;;29.00;27.67;;;;;6.89;78.74;102945.50;4999237;28;45654;-66
2021/12/19 01:51:36;;;;;;;;;28.67;26.00;;;;;7.14;79.21;102982.31;4984373;28;47097;-66
2021/12/19 01:54:02;;;;;;;;;26.00;22.33;;;;;7.14;79.58;102973.53;4992486;28;45477;-66
2021/12/19 01:56:28;;;;;;;;;30.67;24.67;;;;;6.78;79.21;102931.88;4997834;28;45266;-65
2021/12/19 01:58:53;;;;;;;;;35.67;30.33;;;;;6.87;79.40;102936.78;4998462;28;45249;-66
2021/12/19 02:01:19;;;;;;;;;35.33;28.00;;;;;7.15;80.03;102973.47;4990328;28;45534;-65
2021/12/19 02:03:45;;;;;;;;;37.67;32.33;;;;;7.16;78.76;102953.16;4980013;28;45571;-65
2021/12/19 02:06:10;;;;;;;;;30.33;26.00;;;;;6.82;78.79;102901.78;4979974;28;45384;-65
2021/12/19 02:08:36;;;;;;;;;30.33;24.33;;;;;7.25;79.06;102963.34;4986382;28;45376;-66
2021/12/19 02:11:01;;;;;;;;;24.67;21.33;;;;;7.26;78.59;102968.56;4999734;28;46297;-66
2021/12/19 02:13:27;;;;;;;;;36.33;29.33;;;;;6.97;78.49;102901.06;4995459;28;45336;-66
2021/12/19 02:15:52;;;;;;;;;35.67;29.00;;;;;7.30;78.61;102962.22;4995731;28;45459;-66
2021/12/19 02:18:21;;;;;;;;;23.67;20.33;;;;;7.27;78.91;102964.13;4979897;28;45476;-66
2021/12/19 02:20:57;;;;;;;;;34.67;31.67;;;;;7.31;78.80;102952.47;5007308;28;48125;-66
2021/12/19 02:23:26;;;;;;;;;29.33;24.33;;;;;7.30;78.62;102964.84;4997170;28;45564;-66
2021/12/19 02:25:53;;;;;;;;;32.67;27.33;;;;;7.36;78.16;102945.19;4999452;28;45321;-66
2021/12/19 02:28:19;;;;;;;;;29.33;27.67;;;;;6.60;78.22;102811.94;4998994;28;45413;-66
2021/12/19 02:30:45;;;;;;;;;36.67;30.00;;;;;7.35;78.49;102932.03;4999327;28;46543;-66
2021/12/19 02:33:19;;;;;;;;;20.00;15.67;;;;;7.31;78.39;102952.47;4998740;28;45228;-65
2021/12/19 02:35:54;;;;;;;;;29.00;25.67;;;;;7.41;78.62;102943.22;4996756;28;45559;-65
2021/12/19 02:39:15;;;;;;;;;29.00;23.67;;;;;7.40;77.97;102932.66;4979709;28;45463;-66
2021/12/19 02:49:28;;;;;;;;;30.33;26.67;;;;;7.34;78.16;102917.94;4982873;28;45502;-66
2021/12/19 02:51:54;;;;;;;;;27.00;25.67;;;;;7.28;79.11;102926.16;4994300;28;46766;-65
2021/12/19 02:54:21;;;;;;;;;30.33;28.00;;;;;7.16;78.74;102929.34;4978989;28;45523;-64
2021/12/19 02:56:47;;;;;;;;;36.33;32.67;;;;;7.06;79.63;102904.25;4998199;28;45349;-65
2021/12/19 02:59:12;;;;;;;;;26.67;24.00;;;;;7.23;79.06;102922.88;4998312;28;45519;-66
2021/12/19 03:01:38;;;;;;;;;22.33;21.00;;;;;7.32;78.04;102919.81;4997674;28;46729;-65
2021/12/19 03:04:03;;;;;;;;;31.00;27.67;;;;;7.36;78.13;102929.31;4979729;28;45281;-65
2021/12/19 03:06:29;;;;;;;;;29.00;25.00;;;;;7.28;77.81;102900.56;4979219;28;45308;-66
2021/12/19 03:08:57;;;;;;;;;30.67;25.00;;;;;7.50;78.17;102913.66;4979015;28;45349;-65
2021/12/19 03:12:03;;;;;;;;;26.00;21.67;;;;;7.42;77.65;102875.25;4978770;28;46974;-64
2021/12/19 03:20:05;;;;;;;;;22.33;18.33;;;;;7.15;78.51;102914.41;4994689;28;45450;-65
2021/12/19 03:22:31;;;;;;;;;29.67;24.00;;;;;6.82;78.87;102872.69;4998404;28;45376;-67
2021/12/19 03:24:56;;;;;;;;;19.00;17.00;;;;;7.03;78.79;102896.47;4997669;28;45416;-65
2021/12/19 03:27:22;;;;;;;;;24.00;22.00;;;;;6.74;79.19;102871.28;4998505;28;45415;-66
2021/12/19 03:29:47;;;;;;;;;31.33;28.33;;;;;7.06;79.10;102904.25;4984783;28;46114;-65
2021/12/19 03:32:12;;;;;;;;;24.33;21.33;;;;;7.15;79.19;102903.81;4977518;28;45650;-67
2021/12/19 03:34:38;;;;;;;;;26.00;19.67;;;;;7.04;78.42;102903.47;4989977;28;45468;-65
2021/12/19 03:37:03;;;;;;;;;30.67;26.33;;;;;6.50;78.99;102809.78;4996460;28;45455;-65
2021/12/19 03:39:37;;;;;;;;;27.67;26.33;;;;;7.11;78.99;102902.25;4998396;28;45251;-64
2021/12/19 03:42:04;;;;;;;;;28.67;26.33;;;;;6.78;78.83;102843.78;4984570;28;47694;-66
2021/12/19 03:44:30;;;;;;;;;27.33;27.33;;;;;6.90;78.64;102872.34;4988204;28;45804;-66
2021/12/19 03:46:56;;;;;;;;;23.67;20.67;;;;;6.65;78.97;102840.84;4995877;28;45516;-66
2021/12/19 03:49:21;;;;;;;;;20.00;17.67;;;;;7.07;78.21;102905.97;4987576;28;45507;-65
2021/12/19 03:51:48;;;;;;;;;31.00;25.67;;;;;6.76;78.23;102853.56;4983047;28;45567;-64
2021/12/19 03:54:13;;;;;;;;;30.00;21.00;;;;;6.75;78.22;102878.28;4977451;28;45219;-66
2021/12/19 03:56:39;;;;;;;;;30.00;27.33;;;;;6.88;78.57;102912.06;4993211;28;45262;-66
2021/12/19 03:59:05;;;;;;;;;30.00;28.00;;;;;6.88;79.08;102933.22;4978628;28;45307;-66
2021/12/19 04:01:30;;;;;;;;;33.00;27.00;;;;;6.74;78.88;102898.59;4982444;28;45657;-65
2021/12/19 04:03:57;;;;;;;;;25.67;20.67;;;;;6.71;79.05;102893.44;4978081;28;45447;-68
2021/12/19 04:06:22;;;;;;;;;26.33;23.00;;;;;6.75;79.04;102899.44;4979126;28;45634;-67
2021/12/19 04:08:50;;;;;;;;;27.33;26.33;;;;;6.79;79.63;102901.03;4988900;28;45413;-66
2021/12/19 04:11:15;;;;;;;;;30.00;24.67;;;;;6.71;79.39;102890.78;4987983;28;46557;-66
2021/12/19 04:13:41;;;;;;;;;20.00;18.00;;;;;6.70;79.45;102891.72;4992968;28;45444;-65
2021/12/19 04:16:06;;;;;;;;;32.33;29.67;;;;;5.75;79.41;102726.69;4979083;28;45298;-65
2021/12/19 04:18:32;;;;;;;;;30.67;24.00;;;;;6.90;78.88;102910.22;4986787;28;45436;-66
2021/12/19 04:20:57;;;;;;;;;25.67;19.67;;;;;6.75;79.26;102889.72;4997495;28;45970;-65
2021/12/19 04:23:22;;;;;;;;;23.67;19.67;;;;;6.93;78.82;102899.50;4997261;28;45528;-66
2021/12/19 04:25:49;;;;;;;;;24.33;21.00;;;;;6.77;78.23;102864.06;4996742;28;45592;-65
2021/12/19 04:28:15;;;;;;;;;26.00;19.67;;;;;7.00;78.94;102895.63;4996326;28;45508;-69
2021/12/19 04:30:40;;;;;;;;;25.67;21.00;;;;;6.88;78.27;102868.91;4997024;28;46168;-72
2021/12/19 04:33:10;;;;;;;;;15.33;14.00;;;;;7.06;78.56;102883.09;4994464;28;45396;-76
2021/12/19 04:35:39;;;;;;;;;25.00;20.67;;;;;6.99;78.08;102862.19;4980151;28;45452;-78
2021/12/19 04:59:52;;;;;;;;;31.00;22.33;;;;;6.76;79.88;102872.94;4996380;28;45459;-65
2021/12/19 05:05:25;;;;;;;;;22.67;19.67;;;;;6.83;79.16;102832.09;4996868;28;45239;-65
2021/12/19 05:16:00;;;;;;;;;22.00;19.00;;;;;6.96;79.13;102862.34;4977156;28;45420;-65
2021/12/19 05:18:29;;;;;;;;;25.00;23.67;;;;;6.59;80.07;102801.44;4977309;28;45305;-65
2021/12/19 05:20:59;;;;;;;;;23.00;20.00;;;;;6.89;79.84;102839.75;4977790;28;45278;-65
2021/12/19 05:26:10;;;;;;;;;20.00;15.67;;;;;7.17;79.66;102863.16;4985479;28;45484;-66
2021/12/19 05:28:36;;;;;;;;;19.33;19.33;;;;;7.20;78.85;102857.72;4977116;28;45435;-66
2021/12/19 05:31:02;;;;;;;;;25.67;22.67;;;;;6.55;78.09;102734.66;4977360;28;45481;-65
2021/12/19 05:33:27;;;;;;;;;16.33;15.00;;;;;6.85;77.71;102785.28;4976931;28;46642;-65
2021/12/19 05:44:07;;;;;;;;;23.00;20.00;;;;;7.25;78.15;102849.59;4977155;28;45552;-66
2021/12/19 05:46:53;;;;;;;;;22.33;20.67;;;;;7.32;77.70;102853.66;4976493;28;45490;-65
2021/12/19 05:49:18;;;;;;;;;16.67;14.33;;;;;7.37;77.34;102864.88;4976439;28;45259;-65
2021/12/19 05:51:44;;;;;;;;;13.67;13.67;;;;;7.36;77.32;102836.69;4977053;28;45416;-65
2021/12/19 05:54:10;;;;;;;;;20.33;17.33;;;;;7.35;77.08;102840.28;4976858;28;45848;-64
2021/12/19 05:56:36;;;;;;;;;20.67;19.33;;;;;6.56;77.00;102701.16;4976929;28;45439;-65
2021/12/19 05:59:02;;;;;;;;;15.67;14.00;;;;;6.99;76.39;102787.28;4975673;28;45385;-65
2021/12/19 06:01:27;;;;;;;;;13.00;12.33;;;;;7.36;77.06;102843.78;4976564;28;45508;-66
2021/12/19 06:03:53;;;;;;;;;21.00;17.33;;;;;7.40;76.69;102851.50;4976803;28;46271;-66
2021/12/19 06:06:18;;;;;;;;;15.67;15.67;;;;;7.46;76.76;102851.22;4976760;28;45401;-65
2021/12/19 06:08:45;;;;;;;;;13.00;12.00;;;;;7.34;76.33;102838.56;4975372;28;45334;-66
2021/12/19 06:11:10;;;;;;;;;19.33;16.67;;;;;7.18;76.88;102825.19;4977156;28;45491;-66
2021/12/19 06:13:37;;;;;;;;;14.67;12.33;;;;;7.23;76.46;102849.66;4976469;28;46569;-65
2021/12/19 06:16:04;;;;;;;;;11.33;10.67;;;;;7.00;77.16;102837.47;4977164;28;45360;-65
2021/12/19 06:18:30;;;;;;;;;18.33;17.00;;;;;6.85;78.27;102846.09;4978633;28;45220;-65
2021/12/19 06:20:55;;;;;;;;;14.67;14.67;;;;;6.77;78.53;102834.13;4981669;28;45595;-65
2021/12/19 06:23:21;;;;;;;;;18.33;16.00;;;;;6.74;77.88;102816.63;4999412;28;46825;-66
2021/12/19 06:25:46;;;;;;;;;16.33;8.33;;;;;6.56;78.17;102783.94;4998052;28;45600;-65
2021/12/19 06:28:14;;;;;;;;;15.67;14.33;;;;;6.74;78.84;102824.56;4999766;28;45808;-65
2021/12/19 06:30:39;;;;;;;;;15.33;14.00;;;;;6.74;78.74;102835.13;4999618;28;45329;-65
2021/12/19 06:33:04;;;;;;;;;12.00;10.00;;;;;6.65;79.40;102844.34;4999267;28;45750;-66
2021/12/19 06:35:30;;;;;;;;;18.00;12.00;;;;;6.21;79.65;102780.22;4999107;28;45484;-65
2021/12/19 06:37:56;;;;;;;;;16.33;13.67;;;;;6.54;80.51;102837.78;4999339;28;45266;-64
2021/12/19 06:40:23;;;;;;;;;14.67;14.00;;;;;6.61;79.90;102844.56;4999491;28;45550;-64
2021/12/19 06:42:49;;;;;;;;;12.33;12.33;;;;;6.65;80.34;102838.19;4999140;28;46637;-64
2021/12/19 06:45:15;;;;;;;;;16.67;13.00;;;;;6.55;79.64;102834.22;4999013;28;45457;-67
2021/12/19 06:47:41;;;;;;;;;20.33;16.67;;;;;6.64;79.62;102839.13;4990997;28;45530;-65
2021/12/19 06:50:09;;;;;;;;;15.00;13.00;;;;;6.51;79.83;102817.66;4979637;28;45497;-65
2021/12/19 06:52:35;;;;;;;;;19.67;16.67;;;;;6.56;79.76;102822.72;4979415;28;47062;-65
2021/12/19 06:55:01;;;;;;;;;14.67;14.67;;;;;6.66;79.72;102832.00;4979155;28;45548;-65
2021/12/19 06:57:26;;;;;;;;;21.00;17.00;;;;;6.75;79.80;102820.13;4979512;28;45595;-67
2021/12/19 06:59:51;;;;;;;;;16.33;14.67;;;;;6.62;79.40;102803.97;4979486;28;45539;-70
2021/12/19 07:02:17;;;;;;;;;15.00;11.00;;;;;6.80;79.18;102842.78;4979321;28;46652;-64
2021/12/19 07:04:46;;;;;;;;;16.33;12.00;;;;;6.83;78.94;102845.31;4979035;28;45527;-65
2021/12/19 07:07:12;;;;;;;;;13.33;13.00;;;;;6.74;79.14;102835.13;4994363;28;45366;-64
2021/12/19 07:09:39;;;;;;;;;15.67;15.33;;;;;6.47;79.04;102804.66;4994275;28;45589;-66
2021/12/19 07:12:07;;;;;;;;;17.67;14.67;;;;;6.69;79.73;102851.22;4979427;28;46285;-65
2021/12/19 07:14:33;;;;;;;;;17.33;16.33;;;;;6.80;79.14;102842.78;4993844;28;45438;-65
2021/12/19 07:16:58;;;;;;;;;15.33;15.33;;;;;6.81;78.64;102835.72;4979006;28;45257;-66
2021/12/19 07:19:24;;;;;;;;;17.33;13.00;;;;;6.65;79.25;102825.84;4979031;28;45394;-65
2021/12/19 07:21:49;;;;;;;;;20.00;13.33;;;;;6.69;78.83;102837.13;4979002;28;45952;-66
2021/12/19 07:24:15;;;;;;;;;18.00;14.33;;;;;6.78;79.53;102827.91;4977785;28;45317;-65
2021/12/19 07:26:40;;;;;;;;;15.67;13.00;;;;;6.89;78.79;102842.41;4978992;28;45499;-66
2021/12/19 07:29:06;;;;;;;;;17.00;13.00;;;;;6.30;79.31;102726.97;4979051;28;45377;-64
2021/12/19 07:31:35;;;;;;;;;15.33;12.67;;;;;6.97;78.25;102831.47;4977341;28;47349;-66
2021/12/19 07:34:00;;;;;;;;;14.00;14.00;;;;;7.06;79.01;102830.19;4978256;28;45477;-65
2021/12/19 07:36:29;;;;;;;;;23.67;16.33;;;;;7.10;78.13;102819.41;4978792;28;45199;-64
2021/12/19 07:39:04;;;;;;;;;13.00;11.67;;;;;7.20;77.36;102822.47;4979116;28;45356;-66
2021/12/19 07:41:30;;;;;;;;;12.00;10.00;;;;;7.22;77.99;102820.63;4993390;28;45863;-66
2021/12/19 07:43:55;;;;;;;;;16.67;13.00;;;;;7.20;77.20;102819.81;4978535;28;45358;-66
2021/12/19 07:46:20;;;;;;;;;13.33;12.00;;;;;7.10;76.63;102819.41;4978724;28;45331;-66
2021/12/19 07:48:46;;;;;;;;;12.00;11.00;;;;;7.08;77.10;102808.03;4978700;28;45573;-67
2021/12/19 07:51:11;;;;;;;;;10.33;10.33;;;;;6.99;77.74;102798.72;4978546;28;46167;-65
2021/12/19 07:53:36;;;;;;;;;7.00;7.00;;;;;7.17;77.15;102822.59;4978190;28;45344;-66
2021/12/19 07:56:03;;;;;;;;;10.67;10.67;;;;;7.29;77.27;102827.34;4978547;28;45326;-66
2021/12/19 07:58:28;;;;;;;;;13.00;12.00;;;;;7.30;76.96;102824.63;4978784;28;45395;-66
2021/12/19 08:00:54;;;;;;;;;13.00;11.00;;;;;7.39;76.31;102833.03;4978083;28;46156;-66
2021/12/19 08:03:19;;;;;;;;;14.67;11.33;;;;;7.27;76.34;102819.47;4978449;28;45457;-65
2021/12/19 08:05:45;;;;;;;;;15.33;12.00;;;;;7.25;76.94;102816.03;4978250;28;45396;-66
2021/12/19 08:08:15;;;;;;;;;13.33;12.67;;;;;7.23;76.46;102807.31;4993579;28;45566;-66
2021/12/19 08:13:07;;;;;;;;;14.67;13.33;;;;;7.40;76.37;102835.63;4978205;28;45420;-65
2021/12/19 08:15:33;;;;;;;;;11.00;11.00;;;;;7.32;75.55;102832.47;4993219;28;45450;-70
2021/12/19 08:17:59;;;;;;;;;13.00;11.33;;;;;7.39;75.85;102833.91;4992937;28;45331;-68
2021/12/19 08:20:27;;;;;;;;;15.00;11.00;;;;;7.44;75.73;102831.06;4977766;28;46544;-67
2021/12/19 08:22:53;;;;;;;;;11.00;10.00;;;;;7.39;75.89;102836.53;4978022;28;45440;-65
2021/12/19 08:25:20;;;;;;;;;14.33;14.33;;;;;7.38;75.65;102837.47;4977908;28;45414;-66
2021/12/19 08:27:45;;;;;;;;;12.67;11.00;;;;;7.36;75.41;102830.53;4978103;28;45477;-66
2021/12/19 08:30:14;;;;;;;;;14.67;11.00;;;;;7.32;75.64;102829.84;4977530;28;46043;-65
2021/12/19 08:32:39;;;;;;;;;13.67;12.67;;;;;7.34;75.20;102827.97;4977877;28;45511;-67
2021/12/19 08:35:07;;;;;;;;;14.00;11.00;;;;;7.30;75.31;102829.06;4977903;28;45454;-68
2021/12/19 08:37:33;;;;;;;;;16.33;13.00;;;;;7.29;75.06;102817.63;4976915;28;45483;-67
2021/12/19 08:39:59;;;;;;;;;14.00;11.00;;;;;7.30;74.73;102821.13;4976927;28;45716;-66
2021/12/19 08:42:24;;;;;;;;;13.00;12.00;;;;;7.24;75.13;102797.59;4977589;28;45260;-66
2021/12/19 08:44:50;;;;;;;;;16.00;14.00;;;;;7.03;74.49;102756.28;4977919;28;45251;-66
2021/12/19 08:47:16;;;;;;;;;14.67;13.00;;;;;7.11;74.49;102772.66;4988730;28;45473;-67
2021/12/19 08:49:42;;;;;;;;;14.67;14.00;;;;;7.38;74.39;102815.44;4995736;28;47458;-66
2021/12/19 08:52:09;;;;;;;;;13.33;10.33;;;;;7.14;74.37;102781.28;4995790;28;45511;-68
2021/12/19 08:54:35;;;;;;;;;16.67;14.33;;;;;7.28;74.80;102817.69;4997502;28;45594;-66
2021/12/19 08:57:00;;;;;;;;;13.00;10.33;;;;;7.23;74.96;102807.31;4996182;28;45367;-65
2021/12/19 08:59:29;;;;;;;;;14.67;13.33;;;;;6.94;74.73;102766.34;4997081;28;45686;-67
2021/12/19 09:01:57;;;;;;;;;13.67;12.00;;;;;7.15;74.90;102830.63;4996968;28;45230;-67
2021/12/19 09:04:23;;;;;;;;;16.67;13.00;;;;;7.12;74.65;102808.75;4997235;28;45492;-65
2021/12/19 09:06:49;;;;;;;;;14.00;14.00;;;;;7.27;75.37;102834.50;4995758;28;45534;-66
2021/12/19 09:09:15;;;;;;;;;11.00;9.00;;;;;7.23;74.26;102825.00;4996874;28;46130;-66
2021/12/19 09:11:40;;;;;;;;;14.00;13.00;;;;;7.15;74.26;102813.88;4996889;28;45420;-66
2021/12/19 09:14:06;;;;;;;;;14.00;12.00;;;;;7.29;74.59;102829.97;4996868;28;45605;-66
2021/12/19 09:16:32;;;;;;;;;17.00;16.33;;;;;7.39;74.59;102838.34;4996298;28;45447;-66
2021/12/19 09:18:57;;;;;;;;;14.33;13.00;;;;;7.04;74.48;102784.44;4996920;28;46567;-66
2021/12/19 09:21:23;;;;;;;;;12.67;11.00;;;;;6.98;74.70;102782.94;4996914;28;45475;-67
2021/12/19 09:23:48;;;;;;;;;11.00;11.00;;;;;7.26;74.36;102817.75;4997098;28;45388;-66
2021/12/19 09:26:14;;;;;;;;;16.00;13.67;;;;;6.95;74.78;102765.41;4997259;28;45240;-65
2021/12/19 09:28:39;;;;;;;;;20.33;17.67;;;;;7.25;74.75;102836.34;4996407;28;45768;-66
2021/12/19 09:31:05;;;;;;;;;12.00;12.00;;;;;7.15;74.16;102792.72;4996561;28;45211;-65
2021/12/19 09:33:31;;;;;;;;;15.33;13.00;;;;;7.29;74.71;102816.75;4996832;28;45415;-65
2021/12/19 09:35:59;;;;;;;;;15.67;12.00;;;;;7.27;74.06;102802.75;4996686;28;45285;-65
2021/12/19 09:38:25;;;;;;;;;21.00;14.00;;;;;7.20;74.22;102796.00;4994945;28;47261;-68
2021/12/19 09:40:58;;;;;;;;;18.00;15.00;;;;;7.20;74.49;102803.94;5011392;28;45405;-66
2021/12/19 09:43:42;;;;;;;;;18.67;16.00;;;;;7.49;74.69;102823.75;4996293;28;45378;-67
2021/12/19 09:46:16;;;;;;;;;15.67;14.00;;;;;7.55;74.25;102829.59;4990350;28;45475;-65
2021/12/19 09:48:44;;;;;;;;;22.67;16.67;;;;;7.51;74.55;102833.34;4991426;28;48344;-66
2021/12/19 09:51:11;;;;;;;;;17.33;15.00;;;;;7.16;74.60;102791.78;4976147;28;47103;-67
2021/12/19 09:53:38;;;;;;;;;26.33;16.67;;;;;7.07;75.82;102818.69;4980199;28;45323;-67
2021/12/19 09:56:05;;;;;;;;;15.67;15.33;;;;;6.97;76.80;102819.09;4980432;28;45573;-67
2021/12/19 09:58:32;;;;;;;;;25.33;22.00;;;;;6.50;76.28;102746.38;4979966;28;45787;-65
2021/12/19 10:01:01;;;;;;;;;24.33;23.67;;;;;6.91;76.55;102811.44;4994927;28;45498;-66
2021/12/19 10:03:26;;;;;;;;;18.33;15.00;;;;;7.01;76.63;102823.34;4980165;28;45531;-68
2021/12/19 10:06:11;;;;;;;;;22.67;18.67;;;;;6.99;75.97;102817.22;4980101;28;45289;-67
2021/12/19 10:08:37;;;;;;;;;20.33;14.33;;;;;7.04;76.57;102811.75;4979904;28;45298;-66
2021/12/19 10:11:06;;;;;;;;;24.00;19.00;;;;;7.03;75.86;102814.47;4980238;28;45325;-68
2021/12/19 10:13:35;;;;;;;;;19.33;14.33;;;;;7.11;76.63;102812.31;4979841;28;45604;-69
2021/12/19 10:16:01;;;;;;;;;21.00;21.00;;;;;6.60;75.51;102697.44;4983375;28;45362;-67
2021/12/19 10:18:26;;;;;;;;;18.00;14.67;;;;;6.85;75.30;102739.50;4999316;28;46548;-67
2021/12/19 10:20:57;;;;;;;;;17.33;17.00;;;;;7.21;75.59;102803.03;4999364;28;45345;-65
2021/12/19 10:23:27;;;;;;;;;21.67;19.67;;;;;7.12;75.36;102777.88;4999428;28;45377;-66
2021/12/19 10:26:06;;;;;;;;;19.33;18.00;;;;;6.81;75.43;102722.91;4998009;28;45255;-69
2021/12/19 10:28:32;;;;;;;;;19.67;17.00;;;;;6.91;75.82;102740.06;4998792;28;45807;-67
2021/12/19 10:31:01;;;;;;;;;21.00;19.00;;;;;7.06;75.48;102754.34;4998711;28;45282;-65
2021/12/19 10:33:32;;;;;;;;;18.67;18.67;;;;;6.97;75.41;102773.28;4999267;28;45305;-68
2021/12/19 10:36:04;;;;;;;;;20.67;18.67;;;;;7.01;75.92;102786.31;4999418;28;45491;-66
2021/12/19 10:38:41;;;;;;;;;17.67;17.67;;;;;7.08;76.16;102786.88;4985210;28;45693;-66
2021/12/19 10:41:20;;;;;;;;;22.00;17.00;;;;;7.11;75.72;102799.09;4984807;28;45452;-66
2021/12/19 10:43:58;;;;;;;;;17.33;17.33;;;;;7.08;75.67;102788.66;4979554;28;45352;-66
2021/12/19 10:46:32;;;;;;;;;17.00;12.00;;;;;7.02;76.16;102797.75;4991733;28;45254;-67
2021/12/19 10:48:59;;;;;;;;;22.00;18.00;;;;;6.97;75.68;102779.44;4998589;28;46162;-65
2021/12/19 10:51:25;;;;;;;;;27.67;23.00;;;;;7.11;75.72;102791.16;4988904;28;45330;-66
2021/12/19 10:53:55;;;;;;;;;25.33;22.67;;;;;6.96;75.71;102785.66;4979331;28;45260;-68
2021/12/19 10:56:24;;;;;;;;;31.00;28.33;;;;;6.93;75.88;102782.28;4979395;28;45279;-66
2021/12/19 10:59:13;;;;;;;;;21.33;16.33;;;;;6.84;76.37;102775.66;4979058;28;46896;-66
2021/12/19 11:01:44;;;;;;;;;25.00;20.33;;;;;6.93;76.17;102777.84;4979082;28;45281;-68
2021/12/19 11:04:12;;;;;;;;;24.67;23.00;;;;;7.01;75.81;102772.22;4977858;28;45304;-69
2021/12/19 11:06:50;;;;;;;;;30.67;24.33;;;;;6.71;75.34;102713.69;4979003;28;45394;-66
2021/12/19 11:09:22;;;;;;;;;23.00;18.67;;;;;6.93;75.83;102772.56;4978983;28;45943;-69
2021/12/19 11:12:10;;;;;;;;;37.00;29.00;;;;;6.96;76.06;102766.28;4977566;28;45491;-66
2021/12/19 11:14:44;;;;;;;;;34.67;30.33;;;;;6.68;75.84;102712.03;4988348;28;45442;-66
2021/12/19 11:17:16;;;;;;;;;20.33;17.33;;;;;7.00;75.69;102750.19;4978781;28;45366;-66
2021/12/19 11:19:43;;;;;;;;;30.00;24.67;;;;;7.15;75.62;102767.13;4978639;28;45710;-67
2021/12/19 11:22:10;;;;;;;;;25.00;20.33;;;;;7.13;73.86;102755.78;4978478;28;45493;-70
2021/12/19 11:24:36;;;;;;;;;29.00;26.00;;;;;6.87;73.27;102725.28;4978529;28;45437;-67
2021/12/19 11:27:05;;;;;;;;;26.00;22.00;;;;;7.11;73.28;102730.31;4978632;28;45319;-67
2021/12/19 11:29:31;;;;;;;;;22.00;22.00;;;;;7.27;73.37;102741.91;4983850;28;47444;-67
2021/12/19 11:32:04;;;;;;;;;28.67;23.00;;;;;7.30;72.91;102749.69;4997994;28;45407;-66
2021/12/19 11:34:57;;;;;;;;;23.00;21.33;;;;;7.30;72.46;102737.31;4996878;28;45672;-67
2021/12/19 11:37:31;;;;;;;;;35.00;28.67;;;;;7.25;73.08;102731.38;4997713;28;45429;-64
2021/12/19 11:39:57;;;;;;;;;26.67;21.67;;;;;7.14;72.81;102691.34;4997846;28;46686;-67
2021/12/19 11:42:33;;;;;;;;;27.00;23.67;;;;;7.16;73.18;102733.59;4997919;28;45242;-66
2021/12/19 11:47:56;;;;;;;;;25.67;22.33;;;;;7.32;73.26;102713.41;4997989;28;45198;-68
2021/12/19 11:50:29;;;;;;;;;30.33;28.00;;;;;7.23;73.31;102721.81;4997630;28;46623;-68
2021/12/19 11:52:57;;;;;;;;;34.33;27.67;;;;;7.17;73.02;102696.50;4997794;28;45306;-67
2021/12/19 11:55:39;;;;;;;;;29.33;27.00;;;;;6.77;72.25;102606.78;4997574;28;45305;-66
2021/12/19 11:58:08;;;;;;;;;29.00;26.33;;;;;7.26;72.83;102701.34;4998163;28;45514;-68
2021/12/19 12:00:40;;;;;;;;;17.33;17.00;;;;;6.86;72.86;102643.38;4982624;28;47280;-66
2021/12/19 12:03:12;;;;;;;;;22.00;21.33;;;;;6.99;72.54;102698.22;4977081;28;45397;-66
2021/12/19 12:05:38;;;;;;;;;24.00;19.67;;;;;6.88;73.75;102684.69;4976771;28;45307;-65
2021/12/19 12:08:04;;;;;;;;;28.00;22.67;;;;;7.10;73.41;102688.94;4977912;28;45554;-67
2021/12/19 12:10:49;;;;;;;;;23.33;20.00;;;;;7.22;72.95;102691.84;4976473;28;47542;-67
2021/12/19 12:13:30;;;;;;;;;25.67;19.67;;;;;7.23;72.66;102684.78;4977671;28;45471;-67
2021/12/19 12:16:33;;;;;;;;;25.00;21.33;;;;;7.29;72.41;102681.81;4976712;28;45401;-67
2021/12/19 12:19:02;;;;;;;;;30.67;26.67;;;;;7.17;72.56;102637.44;4976100;28;47326;-69
2021/12/19 12:21:40;;;;;;;;;24.67;19.33;;;;;7.49;72.09;102665.81;4978031;28;45995;-67
2021/12/19 12:24:12;;;;;;;;;26.33;17.33;;;;;7.60;72.05;102670.53;4977658;28;45246;-66
2021/12/19 12:26:50;;;;;;;;;24.33;23.33;;;;;7.34;71.85;102640.09;4977638;28;45514;-70
2021/12/19 12:29:16;;;;;;;;;26.67;25.33;;;;;7.53;72.98;102664.72;4977691;28;45637;-66